Time;durP1;ratioP1;P1;durP2;ratioP2;P2;SDS_P1;SDS_P2;PMS_P1;PMS_P2;Temp;Humidity;BMP_temperature;BMP_pressure;BME280_temperature;BME280_humidity;BME280_pressure;Samples;Min_cycle;Max_cycle;Signal;HPM_P1;HPM_P2
2023/03/17 00:00:46;;;;;;;;;;;7.20;99.90;;;;;;5082251;28;1262;-68
2023/03/17 00:03:25;;;;;;;;;;;7.10;99.90;;;;;;5080474;28;1092;-68
2023/03/17 00:05:52;;;;;;;;;;;6.90;99.90;;;;;;5082802;28;1247;-68
2023/03/17 00:08:21;;;;;;;;;;;7.20;99.90;;;;;;5085651;28;1113;-67
2023/03/17 00:10:47;;;;;;;;;;;7.20;99.90;;;;;;5072291;28;1667;-67
2023/03/17 00:13:14;;;;;;;;;;;7.20;99.90;;;;;;5071978;28;1160;-67
2023/03/17 00:15:40;;;;;;;;;;;7.20;99.90;;;;;;5072046;28;1308;-68
2023/03/17 00:18:10;;;;;;;;;;;7.20;99.90;;;;;;5071095;28;1930;-67
2023/03/17 00:20:36;;;;;;;;;;;7.20;99.90;;;;;;5053993;28;1317;-67
2023/03/17 00:23:03;;;;;;;;;;;7.20;99.90;;;;;;5072000;28;1229;-68
2023/03/17 00:25:31;;;;;;;;;;;7.20;99.90;;;;;;5071019;28;1184;-67
2023/03/17 00:27:57;;;;;;;;;;;7.20;99.90;;;;;;5070511;28;1245;-67
2023/03/17 00:30:26;;;;;;;;;;;7.20;99.90;;;;;;5051790;28;1185;-67
2023/03/17 00:32:54;;;;;;;;;;;7.20;99.90;;;;;;5070750;28;1170;-68
2023/03/17 00:35:22;;;;;;;;;;;7.20;99.90;;;;;;5071837;28;1065;-68
2023/03/17 00:37:49;;;;;;;;;;;7.20;99.90;;;;;;5046630;28;1918;-67
2023/03/17 00:40:16;;;;;;;;;;;7.20;99.90;;;;;;5071080;28;1164;-68
2023/03/17 00:42:42;;;;;;;;;;;7.20;99.90;;;;;;5071807;28;1291;-68
2023/03/17 00:45:09;;;;;;;;;;;7.10;99.90;;;;;;5070637;28;1093;-68
2023/03/17 00:47:34;;;;;;;;;;;7.10;99.90;;;;;;5071357;28;1142;-68
2023/03/17 00:50:00;;;;;;;;;;;7.20;99.90;;;;;;5071829;28;1108;-67
2023/03/17 00:52:26;;;;;;;;;;;7.10;99.90;;;;;;5071094;28;1140;-67
2023/03/17 00:54:52;;;;;;;;;;;7.10;99.90;;;;;;5058560;28;1201;-67
2023/03/17 00:57:18;;;;;;;;;;;7.10;99.90;;;;;;5053534;28;1967;-67
2023/03/17 00:59:43;;;;;;;;;;;7.10;99.90;;;;;;5070621;28;1109;-67
2023/03/17 01:02:10;;;;;;;;;;;7.10;99.90;;;;;;5070955;28;1105;-67
2023/03/17 01:04:36;;;;;;;;;;;7.00;99.90;;;;;;5071078;28;1217;-68
2023/03/17 01:07:02;;;;;;;;;;;7.10;99.90;;;;;;5079430;28;1136;-67
2023/03/17 01:09:28;;;;;;;;;;;7.00;99.90;;;;;;5073903;28;1148;-67
2023/03/17 01:11:56;;;;;;;;;;;7.00;99.90;;;;;;5041433;28;1188;-67
2023/03/17 01:14:21;;;;;;;;;;;7.00;99.90;;;;;;5073395;28;1092;-67
2023/03/17 01:16:47;;;;;;;;;;;7.00;99.90;;;;;;5070679;28;1034;-67
2023/03/17 01:19:13;;;;;;;;;;;7.00;99.90;;;;;;5070706;28;1981;-67
2023/03/17 01:21:40;;;;;;;;;;;7.00;99.90;;;;;;5069907;28;1209;-67
2023/03/17 01:24:07;;;;;;;;;;;7.00;99.90;;;;;;5052832;28;1145;-67
2023/03/17 01:26:32;;;;;;;;;;;7.00;99.90;;;;;;5052405;28;1063;-67
2023/03/17 01:28:58;;;;;;;;;;;7.00;99.90;;;;;;5069903;28;1445;-67
2023/03/17 01:31:25;;;;;;;;;;;7.00;99.90;;;;;;5070852;28;1240;-67
2023/03/17 01:33:51;;;;;;;;;;;7.00;99.90;;;;;;5052411;28;1176;-67
2023/03/17 01:36:17;;;;;;;;;;;7.00;99.90;;;;;;5070107;28;1098;-67
2023/03/17 01:38:43;;;;;;;;;;;7.00;99.90;;;;;;5055216;28;1910;-67
2023/03/17 01:41:09;;;;;;;;;;;7.00;99.90;;;;;;5052241;28;1113;-67
2023/03/17 01:43:35;;;;;;;;;;;7.00;99.90;;;;;;5052635;28;1149;-67
2023/03/17 01:46:19;;;;;;;;;;;6.90;99.90;;;;;;5070770;28;1161;-67
2023/03/17 01:48:49;;;;;;;;;;;7.00;99.90;;;;;;5067284;28;1142;-67
2023/03/17 01:51:17;;;;;;;;;;;7.00;99.90;;;;;;5070339;28;1085;-67
2023/03/17 01:53:44;;;;;;;;;;;6.90;99.90;;;;;;5070490;28;1124;-67
2023/03/17 01:56:10;;;;;;;;;;;6.90;99.90;;;;;;5050337;28;1170;-67
2023/03/17 01:58:36;;;;;;;;;;;7.00;99.90;;;;;;5052493;28;1961;-67
2023/03/17 02:01:02;;;;;;;;;;;7.00;99.90;;;;;;5052238;28;1060;-67
2023/03/17 02:03:28;;;;;;;;;;;7.00;99.90;;;;;;5051372;28;975;-67
2023/03/17 02:05:55;;;;;;;;;;;7.00;99.90;;;;;;5051397;28;1089;-67
2023/03/17 02:08:22;;;;;;;;;;;7.00;99.90;;;;;;5056716;28;1100;-67
2023/03/17 02:10:49;;;;;;;;;;;7.00;99.90;;;;;;5065245;28;1661;-67
2023/03/17 02:13:15;;;;;;;;;;;7.00;99.90;;;;;;5069615;28;1169;-67
2023/03/17 02:15:43;;;;;;;;;;;7.00;99.90;;;;;;5069572;28;1336;-67
2023/03/17 02:18:10;;;;;;;;;;;6.90;99.90;;;;;;5068802;28;1993;-67
2023/03/17 02:20:36;;;;;;;;;;;6.90;99.90;;;;;;5052168;28;1141;-67
2023/03/17 02:23:03;;;;;;;;;;;6.90;99.90;;;;;;5057045;28;1154;-67
2023/03/17 02:25:29;;;;;;;;;;;6.90;99.90;;;;;;5050962;28;1073;-67
2023/03/17 02:28:00;;;;;;;;;;;6.90;99.90;;;;;;5058642;28;1433;-67
2023/03/17 02:30:27;;;;;;;;;;;6.90;99.90;;;;;;5069005;28;1112;-67
2023/03/17 02:32:53;;;;;;;;;;;6.90;99.90;;;;;;5068643;28;1119;-68
2023/03/17 02:35:21;;;;;;;;;;;6.90;99.90;;;;;;5051568;28;1455;-67
2023/03/17 02:37:46;;;;;;;;;;;6.90;99.90;;;;;;5068586;28;1941;-67
2023/03/17 02:40:13;;;;;;;;;;;6.90;99.90;;;;;;5069075;28;1162;-67
2023/03/17 02:42:40;;;;;;;;;;;6.90;99.90;;;;;;5069636;28;1175;-67
2023/03/17 02:45:07;;;;;;;;;;;6.90;99.90;;;;;;5051164;28;1106;-67
2023/03/17 02:47:34;;;;;;;;;;;6.80;99.90;;;;;;5069086;28;1143;-67
2023/03/17 02:50:00;;;;;;;;;;;6.80;99.90;;;;;;5068839;28;1175;-67
2023/03/17 02:52:25;;;;;;;;;;;6.70;99.90;;;;;;5068490;28;1156;-67
2023/03/17 02:54:51;;;;;;;;;;;6.70;99.90;;;;;;5068908;28;1168;-66
2023/03/17 02:57:17;;;;;;;;;;;6.60;99.90;;;;;;5069306;28;1914;-67
2023/03/17 02:59:42;;;;;;;;;;;6.60;99.90;;;;;;5067281;28;1190;-67
2023/03/17 03:02:08;;;;;;;;;;;6.60;99.90;;;;;;5069066;28;1083;-67
2023/03/17 03:04:34;;;;;;;;;;;6.60;99.90;;;;;;5068996;28;1101;-67
2023/03/17 03:07:00;;;;;;;;;;;6.60;99.90;;;;;;5066959;28;1164;-67
2023/03/17 03:09:26;;;;;;;;;;;6.60;99.90;;;;;;5068780;28;1240;-67
2023/03/17 03:11:51;;;;;;;;;;;6.60;99.90;;;;;;5069160;28;1195;-67
2023/03/17 03:14:17;;;;;;;;;;;6.60;99.90;;;;;;5068397;28;1024;-67
2023/03/17 03:16:43;;;;;;;;;;;6.60;99.90;;;;;;5068355;28;1162;-67
2023/03/17 03:19:08;;;;;;;;;;;6.70;99.90;;;;;;5069073;28;1910;-67
2023/03/17 03:21:35;;;;;;;;;;;6.60;99.90;;;;;;5068331;28;1089;-67
2023/03/17 03:24:01;;;;;;;;;;;6.60;99.90;;;;;;5068463;28;1206;-67
2023/03/17 03:26:27;;;;;;;;;;;6.60;99.90;;;;;;5058795;28;1316;-67
2023/03/17 03:28:52;;;;;;;;;;;6.60;99.90;;;;;;5068273;28;1190;-68
2023/03/17 03:31:18;;;;;;;;;;;6.60;99.90;;;;;;5068529;28;1124;-67
2023/03/17 03:33:44;;;;;;;;;;;6.70;99.90;;;;;;5049494;28;1156;-67
2023/03/17 03:36:10;;;;;;;;;;;6.70;99.90;;;;;;5050650;28;1184;-67
2023/03/17 03:38:36;;;;;;;;;;;6.70;99.90;;;;;;5050813;28;1906;-67
2023/03/17 03:41:02;;;;;;;;;;;6.60;99.90;;;;;;5068169;28;1002;-67
2023/03/17 03:43:27;;;;;;;;;;;6.60;99.90;;;;;;5068573;28;1195;-67
2023/03/17 03:45:53;;;;;;;;;;;6.60;99.90;;;;;;5068664;28;1124;-67
2023/03/17 03:48:19;;;;;;;;;;;6.60;99.90;;;;;;5067952;28;1093;-67
2023/03/17 03:50:45;;;;;;;;;;;6.70;99.90;;;;;;5067983;28;1190;-67
2023/03/17 03:53:11;;;;;;;;;;;6.70;99.90;;;;;;5068547;28;1101;-67
2023/03/17 03:55:37;;;;;;;;;;;6.70;99.90;;;;;;5049881;28;1256;-67
2023/03/17 03:58:02;;;;;;;;;;;6.70;99.90;;;;;;5068404;28;1914;-67
2023/03/17 04:00:28;;;;;;;;;;;6.70;99.90;;;;;;5041736;28;1139;-67
2023/03/17 04:02:54;;;;;;;;;;;6.70;99.90;;;;;;5064101;28;1102;-67
2023/03/17 04:05:19;;;;;;;;;;;6.70;99.90;;;;;;5068687;28;1172;-67
2023/03/17 04:07:46;;;;;;;;;;;6.70;99.90;;;;;;5080499;28;1105;-67
2023/03/17 04:10:13;;;;;;;;;;;6.70;99.90;;;;;;5063852;28;1189;-67
2023/03/17 04:12:39;;;;;;;;;;;6.70;99.90;;;;;;5071496;28;1109;-67
2023/03/17 04:15:06;;;;;;;;;;;6.70;99.90;;;;;;5071728;28;1157;-67
2023/03/17 04:17:31;;;;;;;;;;;6.70;99.90;;;;;;5070926;28;1906;-67
2023/03/17 04:19:57;;;;;;;;;;;6.70;99.90;;;;;;5072210;28;1144;-67
2023/03/17 04:22:23;;;;;;;;;;;6.70;99.90;;;;;;5071962;28;1113;-67
2023/03/17 04:24:49;;;;;;;;;;;6.70;99.90;;;;;;5069843;28;1236;-67
2023/03/17 04:27:15;;;;;;;;;;;6.70;99.90;;;;;;5070891;28;1199;-67
2023/03/17 04:29:41;;;;;;;;;;;6.70;99.90;;;;;;5071614;28;1207;-67
2023/03/17 04:32:10;;;;;;;;;;;6.70;99.90;;;;;;5071200;28;1120;-67
2023/03/17 04:34:36;;;;;;;;;;;6.70;99.90;;;;;;5071643;28;1129;-68
2023/03/17 04:37:01;;;;;;;;;;;6.70;99.90;;;;;;5070414;28;1107;-67
2023/03/17 04:39:27;;;;;;;;;;;6.80;99.90;;;;;;5072040;28;1910;-67
2023/03/17 04:41:53;;;;;;;;;;;6.70;99.90;;;;;;5071824;28;1117;-67
2023/03/17 04:44:19;;;;;;;;;;;6.70;99.90;;;;;;5065887;28;1156;-67
2023/03/17 04:46:45;;;;;;;;;;;6.70;99.90;;;;;;5068232;28;1159;-67
2023/03/17 04:49:11;;;;;;;;;;;6.70;99.90;;;;;;5053474;28;1381;-67
2023/03/17 04:51:37;;;;;;;;;;;6.70;99.90;;;;;;5070579;28;1156;-67
2023/03/17 04:54:03;;;;;;;;;;;6.70;99.90;;;;;;5071063;28;1150;-67
2023/03/17 04:56:29;;;;;;;;;;;6.70;99.90;;;;;;5071013;28;1421;-67
2023/03/17 04:58:55;;;;;;;;;;;6.70;99.90;;;;;;5070447;28;1965;-67
2023/03/17 05:01:20;;;;;;;;;;;6.60;99.90;;;;;;5053314;28;1132;-67
2023/03/17 05:03:46;;;;;;;;;;;6.60;99.90;;;;;;5070731;28;1119;-67
2023/03/17 05:06:12;;;;;;;;;;;6.50;99.90;;;;;;5072335;28;1124;-67
2023/03/17 05:08:38;;;;;;;;;;;6.50;99.90;;;;;;5080997;28;1260;-67
2023/03/17 05:11:04;;;;;;;;;;;6.50;99.90;;;;;;5067260;28;1125;-67
2023/03/17 05:13:29;;;;;;;;;;;6.50;99.90;;;;;;5035950;28;1860;-67
2023/03/17 05:15:55;;;;;;;;;;;6.40;99.90;;;;;;5070707;28;1118;-67
2023/03/17 05:18:22;;;;;;;;;;;6.30;99.90;;;;;;5071154;28;1977;-67
2023/03/17 05:20:48;;;;;;;;;;;6.40;99.90;;;;;;5069820;28;1136;-67
2023/03/17 05:23:14;;;;;;;;;;;6.30;99.90;;;;;;5045088;28;1173;-67
2023/03/17 05:25:40;;;;;;;;;;;6.40;99.90;;;;;;5070891;28;1153;-67
2023/03/17 05:28:06;;;;;;;;;;;6.40;99.90;;;;;;5068702;28;1614;-67
2023/03/17 05:30:32;;;;;;;;;;;6.40;99.90;;;;;;5066523;28;1082;-67
2023/03/17 05:32:58;;;;;;;;;;;6.40;99.90;;;;;;5070704;28;1108;-67
2023/03/17 05:35:24;;;;;;;;;;;6.40;99.90;;;;;;5069934;28;1109;-67
2023/03/17 05:37:50;;;;;;;;;;;6.40;99.90;;;;;;5069888;28;1933;-67
2023/03/17 05:40:15;;;;;;;;;;;6.40;99.90;;;;;;5070718;28;1005;-67
2023/03/17 05:42:41;;;;;;;;;;;6.40;99.90;;;;;;5070101;28;1113;-67
2023/03/17 05:45:07;;;;;;;;;;;6.50;99.90;;;;;;5069902;28;1109;-67
2023/03/17 05:47:33;;;;;;;;;;;6.50;99.90;;;;;;5068866;28;1135;-67
2023/03/17 05:49:59;;;;;;;;;;;6.50;99.90;;;;;;5070546;28;1081;-67
2023/03/17 05:52:25;;;;;;;;;;;6.50;99.90;;;;;;5070316;28;1156;-67
2023/03/17 05:54:52;;;;;;;;;;;6.50;99.90;;;;;;5069014;28;1128;-67
2023/03/17 05:57:18;;;;;;;;;;;6.50;99.90;;;;;;5070048;28;1938;-67
2023/03/17 05:59:43;;;;;;;;;;;6.50;99.90;;;;;;5069881;28;1093;-67
2023/03/17 06:02:10;;;;;;;;;;;6.50;99.90;;;;;;5069546;28;1293;-67
2023/03/17 06:04:35;;;;;;;;;;;6.60;99.90;;;;;;5045030;28;1125;-67
2023/03/17 06:07:01;;;;;;;;;;;6.60;99.90;;;;;;5078396;28;1148;-67
2023/03/17 06:09:27;;;;;;;;;;;6.50;99.90;;;;;;5072577;28;1372;-67
2023/03/17 06:11:53;;;;;;;;;;;6.50;99.90;;;;;;5069739;28;1081;-67
2023/03/17 06:14:18;;;;;;;;;;;6.50;99.90;;;;;;5050776;28;1199;-68
2023/03/17 06:16:45;;;;;;;;;;;6.60;99.90;;;;;;5051419;28;1846;-67
2023/03/17 06:19:11;;;;;;;;;;;6.60;99.90;;;;;;5051520;28;1914;-67
2023/03/17 06:21:36;;;;;;;;;;;6.60;99.90;;;;;;5063835;28;1164;-67
2023/03/17 06:24:02;;;;;;;;;;;6.60;99.90;;;;;;5068814;28;1230;-67
2023/03/17 06:26:28;;;;;;;;;;;6.60;99.90;;;;;;5070061;28;1108;-67
2023/03/17 06:28:53;;;;;;;;;;;6.60;99.90;;;;;;5068276;28;1171;-67
2023/03/17 06:31:19;;;;;;;;;;;6.70;99.90;;;;;;5066096;28;1131;-67
2023/03/17 06:33:45;;;;;;;;;;;6.70;99.90;;;;;;5069515;28;1128;-67
2023/03/17 06:36:11;;;;;;;;;;;6.80;99.90;;;;;;5073034;28;1146;-67
2023/03/17 06:38:36;;;;;;;;;;;6.90;99.90;;;;;;5068995;28;1961;-67
2023/03/17 06:41:02;;;;;;;;;;;6.90;99.90;;;;;;5068928;28;1185;-67
2023/03/17 06:43:28;;;;;;;;;;;7.00;99.90;;;;;;5051269;28;1192;-67
2023/03/17 06:45:54;;;;;;;;;;;7.10;99.90;;;;;;5050697;28;1078;-67
2023/03/17 06:48:19;;;;;;;;;;;7.10;99.90;;;;;;5065553;28;2418;-68
2023/03/17 06:50:46;;;;;;;;;;;7.10;99.90;;;;;;5061598;28;2335;-67
2023/03/17 06:53:12;;;;;;;;;;;7.10;99.90;;;;;;5066988;28;1656;-67
2023/03/17 06:55:38;;;;;;;;;;;7.10;99.90;;;;;;5057620;28;1300;-67
2023/03/17 06:58:04;;;;;;;;;;;7.10;99.90;;;;;;5067807;28;1910;-67
2023/03/17 07:00:29;;;;;;;;;;;7.20;99.90;;;;;;5069043;28;1120;-67
2023/03/17 07:02:56;;;;;;;;;;;7.20;99.90;;;;;;5069086;28;1124;-68
2023/03/17 07:05:22;;;;;;;;;;;7.00;99.90;;;;;;5067961;28;1148;-68
2023/03/17 07:07:48;;;;;;;;;;;7.20;99.90;;;;;;5073450;28;1347;-68
2023/03/17 07:10:14;;;;;;;;;;;7.20;99.90;;;;;;5068897;28;1641;-68
2023/03/17 07:12:41;;;;;;;;;;;7.20;99.90;;;;;;5067890;28;1071;-67
2023/03/17 07:15:08;;;;;;;;;;;7.30;99.90;;;;;;5071798;28;1287;-68
2023/03/17 07:17:34;;;;;;;;;;;7.30;99.90;;;;;;5076147;28;1910;-68
2023/03/17 07:19:59;;;;;;;;;;;7.40;99.90;;;;;;5079004;28;1263;-68
2023/03/17 07:22:25;;;;;;;;;;;7.40;99.90;;;;;;5072351;28;1179;-68
2023/03/17 07:24:52;;;;;;;;;;;7.40;99.90;;;;;;5068276;28;1360;-68
2023/03/17 07:27:18;;;;;;;;;;;7.50;99.90;;;;;;5067339;28;1093;-68
2023/03/17 07:29:43;;;;;;;;;;;7.60;99.90;;;;;;5068964;28;1135;-68
2023/03/17 07:32:09;;;;;;;;;;;7.60;99.90;;;;;;5068087;28;1073;-68
2023/03/17 07:34:35;;;;;;;;;;;7.50;99.90;;;;;;5075599;28;1108;-68
2023/03/17 07:37:01;;;;;;;;;;;7.50;99.90;;;;;;5054146;28;1097;-68
2023/03/17 07:39:27;;;;;;;;;;;7.60;99.90;;;;;;5079351;28;1969;-68
2023/03/17 07:41:54;;;;;;;;;;;7.80;99.90;;;;;;5058217;28;1119;-68
2023/03/17 07:44:21;;;;;;;;;;;8.00;99.90;;;;;;5075011;28;1188;-68
2023/03/17 07:46:47;;;;;;;;;;;8.20;99.90;;;;;;5080867;28;1227;-68
2023/03/17 07:49:13;;;;;;;;;;;8.40;99.90;;;;;;5081706;28;1215;-68
2023/03/17 07:51:41;;;;;;;;;;;8.60;99.90;;;;;;5082109;28;1185;-68
2023/03/17 07:54:08;;;;;;;;;;;8.80;99.90;;;;;;5080572;28;1211;-68
2023/03/17 07:56:34;;;;;;;;;;;8.90;99.90;;;;;;5082585;28;1165;-68
2023/03/17 07:59:00;;;;;;;;;;;9.10;99.90;;;;;;5081999;28;1902;-68
2023/03/17 08:01:26;;;;;;;;;;;9.20;99.90;;;;;;5083136;28;1141;-68
2023/03/17 08:03:52;;;;;;;;;;;9.40;99.90;;;;;;5074194;28;1274;-68
2023/03/17 08:06:18;;;;;;;;;;;9.50;99.90;;;;;;5075201;28;1108;-68
2023/03/17 08:08:44;;;;;;;;;;;9.50;99.90;;;;;;5081125;28;1250;-68
2023/03/17 08:11:11;;;;;;;;;;;9.70;99.90;;;;;;5083755;28;1223;-68
2023/03/17 08:13:37;;;;;;;;;;;9.90;99.90;;;;;;5078822;28;1291;-68
2023/03/17 08:16:02;;;;;;;;;;;10.10;99.90;;;;;;5060712;28;1211;-68
2023/03/17 08:18:28;;;;;;;;;;;10.20;99.90;;;;;;5081511;28;1990;-68
2023/03/17 08:20:54;;;;;;;;;;;10.30;99.90;;;;;;5082914;28;1306;-68
2023/03/17 08:23:20;;;;;;;;;;;10.30;99.90;;;;;;5080489;28;1263;-68
2023/03/17 08:25:46;;;;;;;;;;;10.40;99.90;;;;;;5080326;28;1366;-68
2023/03/17 08:28:13;;;;;;;;;;;10.50;99.90;;;;;;5080665;28;1203;-68
2023/03/17 08:30:38;;;;;;;;;;;10.40;99.90;;;;;;5081511;28;1199;-68
2023/03/17 08:33:04;;;;;;;;;;;10.30;99.90;;;;;;5081672;28;1215;-68
2023/03/17 08:35:30;;;;;;;;;;;10.30;99.90;;;;;;5072494;28;1255;-68
2023/03/17 08:37:56;;;;;;;;;;;10.20;99.90;;;;;;5071109;28;1902;-68
2023/03/17 08:40:21;;;;;;;;;;;10.30;99.90;;;;;;5071475;28;1152;-68
2023/03/17 08:42:48;;;;;;;;;;;10.30;99.90;;;;;;5070876;28;1175;-68
2023/03/17 08:45:15;;;;;;;;;;;10.40;99.90;;;;;;5081583;28;1224;-68
2023/03/17 08:47:41;;;;;;;;;;;10.50;99.90;;;;;;5071587;28;1006;-68
2023/03/17 08:50:08;;;;;;;;;;;10.50;99.90;;;;;;5053408;28;1105;-68
2023/03/17 08:52:34;;;;;;;;;;;10.40;99.90;;;;;;5073195;28;1025;-68
2023/03/17 08:55:01;;;;;;;;;;;10.30;99.90;;;;;;5081402;28;1333;-68
2023/03/17 08:57:27;;;;;;;;;;;10.20;99.90;;;;;;5059219;28;1941;-68
2023/03/17 08:59:52;;;;;;;;;;;10.30;99.90;;;;;;5050712;28;1148;-68
2023/03/17 09:02:18;;;;;;;;;;;10.30;99.90;;;;;;5070900;28;1111;-68
2023/03/17 09:04:44;;;;;;;;;;;10.30;99.90;;;;;;5052486;28;1173;-68
2023/03/17 09:07:09;;;;;;;;;;;10.40;99.90;;;;;;5080965;28;1301;-68
2023/03/17 09:09:36;;;;;;;;;;;10.50;99.90;;;;;;5073255;28;1332;-68
2023/03/17 09:12:05;;;;;;;;;;;10.60;99.90;;;;;;5070197;28;1167;-68
2023/03/17 09:14:31;;;;;;;;;;;10.70;99.90;;;;;;5070944;28;1030;-68
2023/03/17 09:16:56;;;;;;;;;;;10.80;99.90;;;;;;5060695;28;1089;-68
2023/03/17 09:19:22;;;;;;;;;;;10.90;99.90;;;;;;5067137;28;1972;-68
2023/03/17 09:21:50;;;;;;;;;;;11.00;99.90;;;;;;5071229;28;1070;-68
2023/03/17 09:24:16;;;;;;;;;;;11.20;99.90;;;;;;5052522;28;1183;-68
2023/03/17 09:26:41;;;;;;;;;;;11.30;99.90;;;;;;5069933;28;1097;-69
2023/03/17 09:29:07;;;;;;;;;;;11.50;99.90;;;;;;5052551;28;1477;-68
2023/03/17 09:31:35;;;;;;;;;;;11.70;99.90;;;;;;5071228;28;1121;-69
2023/03/17 09:34:03;;;;;;;;;;;;;;;;;;5069547;28;1105;-69
2023/03/17 09:36:28;;;;;;;;;;;12.20;99.90;;;;;;5052260;28;1137;-69
2023/03/17 09:38:54;;;;;;;;;;;12.30;99.90;;;;;;5072725;28;1906;-69
2023/03/17 09:41:22;;;;;;;;;;;12.30;99.90;;;;;;5078109;28;1243;-69
2023/03/17 09:43:57;;;;;;;;;;;12.50;99.90;;;;;;5080387;28;1307;-69
2023/03/17 09:46:41;;;;;;;;;;;12.70;99.90;;;;;;5073404;28;1195;-69
2023/03/17 09:49:10;;;;;;;;;;;12.70;99.90;;;;;;5075434;28;1078;-69
2023/03/17 09:51:36;;;;;;;;;;;12.80;99.90;;;;;;5060504;28;1207;-69
2023/03/17 09:54:05;;;;;;;;;;;12.90;99.90;;;;;;5081146;28;1092;-69
2023/03/17 09:56:32;;;;;;;;;;;13.00;99.90;;;;;;5061312;28;1267;-69
2023/03/17 09:58:59;;;;;;;;;;;13.20;99.90;;;;;;5079010;28;1974;-69
2023/03/17 10:01:26;;;;;;;;;;;13.40;99.90;;;;;;5069484;28;1077;-69
2023/03/17 10:03:52;;;;;;;;;;;13.40;99.90;;;;;;5076775;28;1102;-69
2023/03/17 10:06:27;;;;;;;;;;;13.70;99.90;;;;;;5079298;28;1054;-69
2023/03/17 10:08:56;;;;;;;;;;;13.70;99.50;;;;;;5072581;28;1438;-69
2023/03/17 10:11:23;;;;;;;;;;;13.90;99.40;;;;;;5049513;28;1145;-69
2023/03/17 10:13:56;;;;;;;;;;;13.90;99.90;;;;;;5069937;28;1101;-69
2023/03/17 10:16:29;;;;;;;;;;;14.10;99.90;;;;;;5059555;28;1121;-69
2023/03/17 10:18:56;;;;;;;;;;;;;;;;;;5075819;28;1963;-69
2023/03/17 10:21:30;;;;;;;;;;;15.10;99.90;;;;;;5077653;28;1128;-69
2023/03/17 10:23:56;;;;;;;;;;;15.20;98.80;;;;;;5077704;28;1231;-69
2023/03/17 10:26:22;;;;;;;;;;;15.50;98.60;;;;;;5078943;28;1128;-69
2023/03/17 10:28:48;;;;;;;;;;;16.00;97.20;;;;;;5076682;28;1255;-69
2023/03/17 10:31:13;;;;;;;;;;;16.30;95.40;;;;;;5080261;28;1265;-70
2023/03/17 10:33:39;;;;;;;;;;;16.40;95.20;;;;;;5076970;28;1279;-69
2023/03/17 10:36:07;;;;;;;;;;;16.90;95.70;;;;;;5073600;28;1133;-69
2023/03/17 10:38:33;;;;;;;;;;;17.00;93.20;;;;;;5068383;28;1906;-69
2023/03/17 10:41:01;;;;;;;;;;;16.80;93.30;;;;;;5051607;28;958;-69
2023/03/17 10:43:27;;;;;;;;;;;16.40;92.70;;;;;;5050593;28;1177;-69
2023/03/17 10:45:58;;;;;;;;;;;16.50;94.30;;;;;;5069358;28;1101;-69
2023/03/17 10:48:24;;;;;;;;;;;16.80;93.80;;;;;;5068385;28;1097;-69
2023/03/17 10:50:49;;;;;;;;;;;16.90;93.10;;;;;;5068495;28;1154;-69
2023/03/17 10:53:18;;;;;;;;;;;17.30;92.90;;;;;;5078167;28;1267;-69
2023/03/17 10:55:49;;;;;;;;;;;17.50;91.90;;;;;;5076806;28;1204;-69
2023/03/17 10:58:17;;;;;;;;;;;17.20;92.50;;;;;;5078272;28;1914;-69
2023/03/17 11:00:53;;;;;;;;;;;17.40;93.50;;;;;;5078283;28;1204;-69
2023/03/17 11:03:23;;;;;;;;;;;17.60;91.00;;;;;;5076741;28;1098;-69
2023/03/17 11:05:56;;;;;;;;;;;17.60;91.60;;;;;;5067900;28;1103;-69
2023/03/17 11:08:22;;;;;;;;;;;17.90;91.70;;;;;;5066219;28;1071;-69
2023/03/17 11:10:53;;;;;;;;;;;18.40;93.40;;;;;;5060399;28;1470;-69
2023/03/17 11:13:18;;;;;;;;;;;18.70;91.30;;;;;;5066912;28;1172;-69
2023/03/17 11:15:48;;;;;;;;;;;18.90;90.50;;;;;;5050752;28;1156;-69
2023/03/17 11:18:14;;;;;;;;;;;;;;;;;;5068417;28;1902;-69
2023/03/17 11:20:45;;;;;;;;;;;19.20;84.90;;;;;;5068632;28;1073;-69
2023/03/17 11:23:31;;;;;;;;;;;19.40;87.10;;;;;;5075622;28;1161;-69
2023/03/17 11:25:57;;;;;;;;;;;;;;;;;;5074999;28;1236;-69
2023/03/17 11:28:26;;;;;;;;;;;20.20;99.90;;;;;;5069099;28;1409;-69
2023/03/17 11:30:53;;;;;;;;;;;20.40;97.80;;;;;;5068366;28;1176;-69
2023/03/17 11:33:28;;;;;;;;;;;19.60;95.50;;;;;;5075155;28;1251;-69
2023/03/17 11:35:57;;;;;;;;;;;19.20;97.80;;;;;;5058091;28;1185;-69
2023/03/17 11:38:24;;;;;;;;;;;18.90;97.20;;;;;;5078201;28;1929;-69
2023/03/17 11:41:03;;;;;;;;;;;19.10;99.20;;;;;;5077269;28;1193;-69
2023/03/17 11:43:44;;;;;;;;;;;19.50;97.60;;;;;;5069263;28;1117;-69
2023/03/17 11:46:14;;;;;;;;;;;19.20;97.70;;;;;;5076476;28;1350;-69
2023/03/17 11:48:40;;;;;;;;;;;18.80;99.70;;;;;;5078823;28;1073;-69
2023/03/17 11:51:19;;;;;;;;;;;19.50;98.90;;;;;;5080698;28;1243;-69
2023/03/17 11:53:52;;;;;;;;;;;19.90;97.80;;;;;;5054989;28;1136;-69
2023/03/17 11:56:20;;;;;;;;;;;20.80;96.60;;;;;;5068398;28;1244;-69
2023/03/17 11:58:52;;;;;;;;;;;21.10;80.50;;;;;;5068499;28;1910;-69
2023/03/17 12:01:22;;;;;;;;;;;21.10;78.30;;;;;;5059786;28;2272;-70
2023/03/17 12:03:51;;;;;;;;;;;21.50;94.90;;;;;;5059591;28;1585;-69
2023/03/17 12:06:24;;;;;;;;;;;21.90;79.30;;;;;;5051902;28;1412;-69
2023/03/17 12:08:55;;;;;;;;;;;23.10;83.10;;;;;;5071625;28;1482;-70
2023/03/17 12:11:23;;;;;;;;;;;22.60;72.00;;;;;;5067681;28;1779;-70
2023/03/17 12:13:50;;;;;;;;;;;;;;;;;;5061036;28;1190;-69
2023/03/17 12:16:19;;;;;;;;;;;;;;;;;;5062075;28;1128;-69
2023/03/17 12:18:52;;;;;;;;;;;22.90;94.30;;;;;;5068289;28;1994;-69
2023/03/17 12:21:19;;;;;;;;;;;;;;;;;;5067626;28;1124;-70
2023/03/17 12:23:46;;;;;;;;;;;;;;;;;;5068209;28;1314;-70
2023/03/17 12:26:13;;;;;;;;;;;;;;;;;;5067284;28;1138;-69
2023/03/17 12:28:39;;;;;;;;;;;;;;;;;;5067558;28;1448;-69
2023/03/17 12:31:05;;;;;;;;;;;;;;;;;;5068227;28;1105;-69
2023/03/17 12:33:31;;;;;;;;;;;;;;;;;;5068608;28;1140;-69
2023/03/17 12:35:58;;;;;;;;;;;;;;;;;;5070855;28;1597;-69
2023/03/17 12:38:24;;;;;;;;;;;;;;;;;;5071384;28;1910;-70
2023/03/17 12:40:50;;;;;;;;;;;;;;;;;;5071883;28;1070;-69
2023/03/17 12:43:16;;;;;;;;;;;;;;;;;;5070851;28;1130;-70
2023/03/17 12:45:43;;;;;;;;;;;;;;;;;;5071580;28;1184;-70
2023/03/17 12:48:09;;;;;;;;;;;;;;;;;;5071291;28;1136;-70
2023/03/17 12:50:35;;;;;;;;;;;;;;;;;;5076628;28;1196;-69
2023/03/17 12:53:01;;;;;;;;;;;;;;;;;;5080803;28;1231;-69
2023/03/17 12:55:27;;;;;;;;;;;;;;;;;;5061898;28;1332;-69
2023/03/17 12:57:53;;;;;;;;;;;;;;;;;;5070659;28;1906;-69
2023/03/17 13:00:28;;;;;;;;;;;18.70;99.90;;;;;;5070525;28;1115;-69
2023/03/17 13:03:14;;;;;;;;;;;18.00;99.90;;;;;;5071077;28;1105;-69
2023/03/17 13:05:43;;;;;;;;;;;18.00;99.30;;;;;;5070694;28;1141;-69
2023/03/17 13:08:12;;;;;;;;;;;18.00;99.90;;;;;;5082907;28;1163;-69
2023/03/17 13:10:40;;;;;;;;;;;17.60;99.90;;;;;;5070704;28;1625;-69
2023/03/17 13:13:10;;;;;;;;;;;17.60;99.90;;;;;;5053265;28;1141;-69
2023/03/17 13:15:37;;;;;;;;;;;17.30;99.90;;;;;;5070476;28;1117;-69
2023/03/17 13:18:12;;;;;;;;;;;17.40;99.90;;;;;;5052263;28;1902;-69
2023/03/17 13:20:40;;;;;;;;;;;17.40;99.40;;;;;;5070901;28;1041;-70
2023/03/17 13:23:09;;;;;;;;;;;17.60;99.90;;;;;;5053472;28;1415;-69
2023/03/17 13:25:35;;;;;;;;;;;17.10;99.90;;;;;;5070467;28;1121;-69
2023/03/17 13:28:21;;;;;;;;;;;16.90;99.90;;;;;;5073301;28;1119;-69
2023/03/17 13:30:46;;;;;;;;;;;17.10;99.90;;;;;;5061526;28;1094;-69
2023/03/17 13:33:12;;;;;;;;;;;17.20;99.90;;;;;;5079944;28;1204;-69
2023/03/17 13:35:44;;;;;;;;;;;17.20;99.90;;;;;;5077344;28;1182;-69
2023/03/17 13:38:17;;;;;;;;;;;17.10;99.90;;;;;;5069986;28;1914;-69
2023/03/17 13:40:49;;;;;;;;;;;17.30;99.90;;;;;;5073894;28;1315;-69
2023/03/17 13:43:32;;;;;;;;;;;17.40;99.90;;;;;;5081131;28;1192;-69
2023/03/17 13:46:18;;;;;;;;;;;17.80;99.90;;;;;;5060684;28;1173;-69
2023/03/17 13:48:44;;;;;;;;;;;18.00;99.90;;;;;;5060628;28;1125;-69
2023/03/17 13:51:16;;;;;;;;;;;17.80;99.90;;;;;;5078919;28;1203;-69
2023/03/17 13:54:01;;;;;;;;;;;17.80;99.90;;;;;;5062049;28;1180;-69
2023/03/17 13:56:39;;;;;;;;;;;17.40;99.90;;;;;;5079177;28;1319;-69
2023/03/17 13:59:10;;;;;;;;;;;17.40;99.90;;;;;;5076521;28;1914;-69
2023/03/17 14:01:50;;;;;;;;;;;17.20;99.90;;;;;;5079321;28;1126;-69
2023/03/17 14:04:18;;;;;;;;;;;17.10;99.90;;;;;;5079908;28;1259;-69
2023/03/17 14:06:44;;;;;;;;;;;17.00;99.90;;;;;;5081396;28;1247;-69
2023/03/17 14:09:17;;;;;;;;;;;17.30;99.90;;;;;;5076801;28;1024;-69
2023/03/17 14:11:44;;;;;;;;;;;17.20;99.90;;;;;;5075417;28;1304;-70
2023/03/17 14:14:14;;;;;;;;;;;17.30;99.90;;;;;;5078556;28;1239;-69
2023/03/17 14:16:43;;;;;;;;;;;17.20;99.90;;;;;;5079352;28;1232;-69
2023/03/17 14:19:15;;;;;;;;;;;17.40;99.90;;;;;;5055750;28;1938;-69
2023/03/17 14:21:41;;;;;;;;;;;17.30;99.90;;;;;;5078838;28;1156;-69
2023/03/17 14:24:20;;;;;;;;;;;17.50;99.90;;;;;;5077772;28;1152;-70
2023/03/17 14:26:47;;;;;;;;;;;17.60;99.90;;;;;;5076807;28;2282;-69
2023/03/17 14:29:13;;;;;;;;;;;17.70;99.90;;;;;;5073867;28;2247;-69
2023/03/17 14:31:39;;;;;;;;;;;17.70;99.90;;;;;;5079467;28;1609;-69
2023/03/17 14:34:11;;;;;;;;;;;17.80;99.90;;;;;;5045668;28;1102;-69
2023/03/17 14:36:36;;;;;;;;;;;17.90;99.90;;;;;;5050168;28;1392;-69
2023/03/17 14:39:02;;;;;;;;;;;17.50;99.90;;;;;;5064411;28;1914;-69
2023/03/17 14:41:28;;;;;;;;;;;17.30;99.90;;;;;;5069605;28;1085;-69
2023/03/17 14:43:57;;;;;;;;;;;16.90;99.90;;;;;;5074701;28;1016;-69
2023/03/17 14:46:24;;;;;;;;;;;16.60;99.90;;;;;;5050718;28;1585;-69